M I D A S
Marine Information and Data Acquisition System
Tripno 462 of the Zeeleeuw from 2003-04-15 06:17:03 to 2003-04-15 13:00:05
Back to CruiseResearch ActivitiesStationsMapUnderway DataData graphs

EquipmentUnitsComment
TimeDGPSUTC
LatitudeDGPSDM.mWGS84
LongitudeDGPSDM.mWGS84
HeadingGyrodeg 
SOGDGPSknotsSpeed over ground
COGDGPSdegCourse over ground
DepthEcho soundermeters200 kHz
Missing or incorrect values are displayed as -999
Navigation data collected by the RV Zeeleeuw from 2003-04-15 06:17:03 to 2003-04-15 13:00:05
Time Latitude Longitude Heading SOG COG Depth
2003-04-15 06:18:07 51°13.61 2°56.05 108.8 3.7 288 -999
2003-04-15 06:19:07 51°13.63 2°55.93 118.1 4.9 292 -999
2003-04-15 06:20:07 51°13.67 2°55.82 128.2 3.7 304 8
2003-04-15 06:21:07 51°13.69 2°55.79 104.5 0.3 338 -999
2003-04-15 06:22:07 51°13.69 2°55.79 75.9 0.7 285 -999
2003-04-15 06:23:07 51°13.69 2°55.75 58 1.4 249 -999
2003-04-15 06:24:07 51°13.69 2°55.74 24.4 0.7 353 5.2
2003-04-15 06:25:07 51°13.72 2°55.73 339.8 2.6 332 9.6
2003-04-15 06:26:07 51°13.78 2°55.67 337.4 5 333 8.9
2003-04-15 06:27:07 51°13.86 2°55.61 339.4 6.2 334 -999
2003-04-15 06:28:07 51°13.97 2°55.53 340.9 7.2 336 8.9
2003-04-15 06:29:07 51°14.08 2°55.45 339.2 7.4 334 8.3
2003-04-15 06:30:07 51°14.19 2°55.35 333.1 7.7 329 -999
2003-04-15 06:31:07 51°14.29 2°55.22 316.9 7.7 312 9.2
2003-04-15 06:32:07 51°14.36 2°55.05 307.3 7.8 302 9.5
2003-04-15 06:33:07 51°14.43 2°54.84 302.2 10.4 295 9.5
2003-04-15 06:34:07 51°14.53 2°54.59 311.6 11.8 302 9.2
2003-04-15 06:35:07 51°14.64 2°54.31 311.8 12.9 303 9.1
2003-04-15 06:36:07 51°14.76 2°54.02 312 13 303 8.8
2003-04-15 06:37:07 51°14.87 2°53.73 312.1 12.9 302 8.6
2003-04-15 06:38:07 51°14.99 2°53.43 312.3 13 302 8.8
2003-04-15 06:39:07 51°15.09 2°53.13 309.3 13.1 299 9.1
2003-04-15 06:40:07 51°15.19 2°52.8 306 14.2 296 9.7
2003-04-15 06:41:07 51°15.29 2°52.45 298.1 14.7 288 10.5
2003-04-15 06:42:07 51°15.34 2°52.06 285.7 15.1 277 11.1
2003-04-15 06:43:07 51°15.35 2°51.66 275.9 15.4 268 11.6
2003-04-15 06:44:07 51°15.33 2°51.25 274.7 15.5 267 11.7
2003-04-15 06:45:07 51°15.31 2°50.84 268.2 15.5 261 12
2003-04-15 06:46:07 51°15.27 2°50.43 268 15.5 261 12
2003-04-15 06:47:07 51°15.23 2°50.03 268.3 15.5 261 12.2
2003-04-15 06:48:07 51°15.18 2°49.62 264.1 15.4 258 12.1
2003-04-15 06:49:07 51°15.13 2°49.22 264.9 15.4 259 12.1
2003-04-15 06:50:07 51°15.08 2°48.82 264.7 15.5 259 12
2003-04-15 06:51:07 51°15.03 2°48.42 264.5 15.4 259 12.2
2003-04-15 06:52:07 51°14.98 2°48.02 264.9 15.3 259 12.3
2003-04-15 06:53:07 51°14.93 2°47.62 265.1 15.2 259 12.3
2003-04-15 06:54:07 51°14.89 2°47.23 264.8 15 259 11.2
2003-04-15 06:55:07 51°14.84 2°46.84 264.9 14.7 259 9.7
2003-04-15 06:56:07 51°14.79 2°46.46 264.5 14.4 259 8.4
2003-04-15 06:57:07 51°14.76 2°46.09 268 14.3 262 8
2003-04-15 06:58:07 51°14.72 2°45.71 267.3 14.7 261 8.9
2003-04-15 06:59:07 51°14.68 2°45.32 264.5 15.3 259 10.4
2003-04-15 07:00:07 51°14.63 2°44.92 264.3 15.4 259 12.1
2003-04-15 07:01:07 51°14.58 2°44.52 264.3 15.5 259 13.7
2003-04-15 07:02:07 51°14.53 2°44.11 264.7 15.5 258 14.8
2003-04-15 07:03:07 51°14.47 2°43.71 265.1 15.5 259 15.7
2003-04-15 07:04:07 51°14.42 2°43.31 265 15.6 258 16.2
2003-04-15 07:05:07 51°14.36 2°42.9 259 15.7 253 16.5
2003-04-15 07:06:07 51°14.28 2°42.51 256.7 15.7 251 16.6
2003-04-15 07:07:07 51°14.19 2°42.12 256.4 15.7 251 16.7
2003-04-15 07:08:07 51°14.11 2°41.72 256.4 15.6 251 16.7
2003-04-15 07:09:07 51°14.05 2°41.38 273.6 9.9 266 16.7
2003-04-15 07:10:07 51°14.1 2°41.25 354.9 4.2 334 15.8
2003-04-15 07:11:07 51°14.15 2°41.25 31.4 1.6 3 14.7
2003-04-15 07:12:07 51°14.15 2°41.25 66.8 0.1 159 14.7
2003-04-15 07:13:07 51°14.15 2°41.25 75.1 0.5 119 14.9
2003-04-15 07:14:07 51°14.14 2°41.27 77.2 0.8 113 15.2
2003-04-15 07:15:07 51°14.14 2°41.29 74 0.8 102 15.7
2003-04-15 07:16:07 51°14.14 2°41.31 73.8 0.9 97 15.8
2003-04-15 07:17:07 51°14.13 2°41.34 82.7 1.1 110 16
2003-04-15 07:18:07 51°14.12 2°41.37 93.7 1.3 127 16.2
2003-04-15 07:19:07 51°14.11 2°41.39 98.9 1.1 154 16.4
2003-04-15 07:20:07 51°14.09 2°41.39 91.6 0.8 179 16.5
2003-04-15 07:21:07 51°14.08 2°41.39 80.1 0.8 208 16.7
2003-04-15 07:22:07 51°14.07 2°41.37 69.5 0.9 229 16.8
2003-04-15 07:23:07 51°14.06 2°41.35 55.8 1.2 239 16.7
2003-04-15 07:24:07 51°14.05 2°41.32 41.2 1.4 239 16.3
2003-04-15 07:25:07 51°14.04 2°41.28 27.6 1.4 242 16.4
2003-04-15 07:26:07 51°14.03 2°41.25 18.1 1.1 263 16.4
2003-04-15 07:27:07 51°14.03 2°41.23 20.8 0.9 285 16.2
2003-04-15 07:28:07 51°14.04 2°41.21 29.5 0.7 306 16.2
2003-04-15 07:29:07 51°14.05 2°41.2 34.5 0.6 326 16.2
2003-04-15 07:30:07 51°14.05 2°41.19 37.2 0.6 345 16.1
2003-04-15 07:31:07 51°14.07 2°41.19 38 0.7 354 15.9
2003-04-15 07:32:07 51°14.08 2°41.19 31.9 0.8 351 15.9
2003-04-15 07:33:07 51°14.09 2°41.19 36.9 0.8 4 15.7
2003-04-15 07:34:07 51°14.1 2°41.19 53.9 0.6 42 15.5
2003-04-15 07:35:07 51°14.1 2°41.21 80.5 0.7 114 15.6
2003-04-15 07:36:07 51°14.09 2°41.23 110.5 1.3 152 15.8
2003-04-15 07:37:07 51°14.06 2°41.24 145.3 1.9 177 16.3
2003-04-15 07:38:07 51°14.03 2°41.23 178.3 2.4 196 16.4
2003-04-15 07:39:07 51°13.99 2°41.2 201.5 2.8 210 16.6
2003-04-15 07:40:07 51°13.95 2°41.15 211.5 3 216 16.5
2003-04-15 07:41:07 51°13.91 2°41.1 218.4 2.8 221 16.7
2003-04-15 07:42:07 51°13.88 2°41.06 224.1 2.5 226 16.7
2003-04-15 07:43:07 51°13.85 2°41.01 232.4 2.5 230 16.6
2003-04-15 07:44:07 51°13.83 2°40.96 239.7 2.4 234 16.6
2003-04-15 07:45:07 51°13.81 2°40.91 244.5 2.3 236 16.6
2003-04-15 07:46:07 51°13.79 2°40.86 249.8 2.2 238 16.1
2003-04-15 07:47:07 51°13.77 2°40.81 256.7 2.1 241 16.4
2003-04-15 07:48:07 51°13.75 2°40.76 263.7 2.3 246 16.5
2003-04-15 07:49:07 51°13.77 2°40.62 309.7 8.3 298 16.2
2003-04-15 07:50:07 51°13.89 2°40.44 333 10.5 324 15.5
2003-04-15 07:51:07 51°14.05 2°40.29 340 10.7 331 14.2
2003-04-15 07:52:07 51°14.21 2°40.22 1.1 10.4 353 14.1
2003-04-15 07:53:07 51°14.39 2°40.2 3.1 10.4 356 12.8
2003-04-15 07:54:07 51°14.56 2°40.19 6.2 10.4 359 13
2003-04-15 07:55:07 51°14.73 2°40.19 6.2 10.4   13.4
2003-04-15 07:56:07 51°14.9 2°40.21 13.5 10.3 7 13.5
2003-04-15 07:57:07 51°15.07 2°40.24 13.3 10.2 7 13.3
2003-04-15 07:58:07 51°15.24 2°40.27 12.7 10.1 6 14.1
2003-04-15 07:59:07 51°15.41 2°40.31 15.2 10 8 15.4
2003-04-15 08:00:07 51°15.57 2°40.34 14.7 10 7 16.5
2003-04-15 08:01:07 51°15.74 2°40.37 14.6 9.9 7 17.8
2003-04-15 08:02:07 51°15.9 2°40.4 16.1 9.9 8 19.3
2003-04-15 08:03:07 51°16.06 2°40.44 16.6 9.8 9 20.4
2003-04-15 08:04:07 51°16.22 2°40.5 21.9 9.7 15 20.9
2003-04-15 08:05:07 51°16.37 2°40.57 26.4 9.7 19 22
2003-04-15 08:06:07 51°16.52 2°40.68 32.2 9.6 26 22.6
2003-04-15 08:07:07 51°16.66 2°40.79 32.1 9.6 26 23.3
2003-04-15 08:08:07 51°16.81 2°40.9 31.6 9.6 25 23.5
2003-04-15 08:09:07 51°16.95 2°41 31.8 9.7 25 23.9
2003-04-15 08:10:07 51°17.1 2°41.12 34.7 9.6 28 24.1
2003-04-15 08:11:07 51°17.18 2°41.2 35.3 4.5 27 24.5
2003-04-15 08:12:07 51°17.23 2°41.23 45.2 2.2 38 24.5
2003-04-15 08:13:07 51°17.24 2°41.27 52.6 1.4 54 24.7
2003-04-15 08:14:07 51°17.26 2°41.28 29 0.5 331 24.6
2003-04-15 08:15:07 51°17.26 2°41.26 14.1 0.8 287 24.8
2003-04-15 08:16:07 51°17.27 2°41.24 8.5 0.9 280 24.7
2003-04-15 08:17:07 51°17.27 2°41.22 10.9 1 297 24.7
2003-04-15 08:18:07 51°17.28 2°41.2 15.4 0.9 311 24.6
2003-04-15 08:19:07 51°17.29 2°41.18 21.8 0.8 326 24.6
2003-04-15 08:20:07 51°17.3 2°41.17 28.3 0.9 347 24.6
2003-04-15 08:21:07 51°17.32 2°41.17 42.6 0.7 20 24.7
2003-04-15 08:22:07 51°17.32 2°41.19 57.1 0.7 64 24.7
2003-04-15 08:23:07 51°17.33 2°41.21 61.6 0.8 78 24.7
2003-04-15 08:24:07 51°17.33 2°41.23 76.8 0.8 114 24.8
2003-04-15 08:25:07 51°17.32 2°41.25 77.6 0.8 122 24.8
2003-04-15 08:26:07 51°17.31 2°41.26 72.3 0.6 136 24.8
2003-04-15 08:27:07 51°17.3 2°41.27 64.7 0.4 168 24.9
2003-04-15 08:28:07 51°17.3 2°41.26 49.8 0.4 218 24.8
2003-04-15 08:29:07 51°17.29 2°41.25 34.8 0.5 242 25
2003-04-15 08:30:07 51°17.29 2°41.24 33.1 0.6 247 25.1
2003-04-15 08:31:07 51°17.28 2°41.23 37.1 0.7 242 24.9
2003-04-15 08:32:07 51°17.28 2°41.21 42.9 0.6 237 24.8
2003-04-15 08:33:07 51°17.27 2°41.2 53.6 0.5 230 25
2003-04-15 08:34:07 51°17.27 2°41.19 64.9 0.5 213 24.9
2003-04-15 08:35:07 51°17.26 2°41.18 72.2 0.5 197 25
2003-04-15 08:36:07 51°17.25 2°41.18 81.4 0.6 181 25.1
2003-04-15 08:37:07 51°17.24 2°41.2 95 1.9 115 25.1
2003-04-15 08:38:07 51°17.24 2°41.28 72.8 2.5 81 25
2003-04-15 08:39:07 51°17.24 2°41.3 55.6 0.9 68 25.2
2003-04-15 08:40:07 51°17.24 2°41.33 75.3 1 96 25.1
2003-04-15 08:41:07 51°17.24 2°41.35 98.9 1.2 128 25.5
2003-04-15 08:42:07 51°17.22 2°41.37 127 1.7 154 25.5
2003-04-15 08:43:07 51°17.19 2°41.38 159.4 2.1 177 25.5
2003-04-15 08:44:07 51°17.15 2°41.37 187.9 2.3 197 25.3
2003-04-15 08:45:07 51°17.11 2°41.35 209 2.3 210 25.1
2003-04-15 08:46:07 51°17.08 2°41.31 227.9 2.3 222 25
2003-04-15 08:47:07 51°17.06 2°41.26 246.6 2.6 235 25.1
2003-04-15 08:48:07 51°17.04 2°41.16 281.4 6.5 270 25
2003-04-15 08:49:07 51°17.1 2°40.93 311.7 10.1 302 24.8
2003-04-15 08:50:07 51°17.24 2°40.79 353.4 10 345 24.2
2003-04-15 08:51:07 51°17.4 2°40.77 6.3 10   23.3
2003-04-15 08:52:07 51°17.57 2°40.77 5.8 10   21.5
2003-04-15 08:53:07 51°17.74 2°40.77 5 10 359 19.2
2003-04-15 08:54:07 51°17.9 2°40.77 4.8 10   19.3
2003-04-15 08:55:07 51°18.07 2°40.77 4.7 10.6   17.3
2003-04-15 08:56:07 51°18.26 2°40.77 4.8 11.1   18.4
2003-04-15 08:57:07 51°18.44 2°40.77 4.3 11   19.6
2003-04-15 08:58:07 51°18.57 2°40.76 355.3 6.1 353 14.3
2003-04-15 08:59:07 51°18.65 2°40.76 3.4 4 1 20.3
2003-04-15 09:00:07 51°18.7 2°40.76 6.5 2.4 6 22
2003-04-15 09:01:07 51°18.72 2°40.77 20.1 1.4 20 21.7
2003-04-15 09:02:07 51°18.74 2°40.78 23.5 1 29 21.2
2003-04-15 09:03:07 51°18.75 2°40.8 28.6 0.8 47 20.4
2003-04-15 09:04:07 51°18.75 2°40.81 32.9 0.7 60 19.5
2003-04-15 09:05:07 51°18.76 2°40.83 36.5 0.6 68 18.2
2003-04-15 09:06:07 51°18.76 2°40.85 38 0.6 72 16.3
2003-04-15 09:07:07 51°18.76 2°40.86 35.8 0.5 75 19.4
2003-04-15 09:08:07 51°18.77 2°40.87 31.5 0.5 73 21.1
2003-04-15 09:09:07 51°18.77 2°40.88 27.2 0.5 70 21.3
2003-04-15 09:10:07 51°18.77 2°40.89 23.8 0.4 66 20.9
2003-04-15 09:11:07 51°18.77 2°40.9 22.5 0.4 70 20.5
2003-04-15 09:12:07 51°18.78 2°40.92 21.3 0.5 70 20.2
2003-04-15 09:13:07 51°18.78 2°40.93 20 0.5 74 20.5
2003-04-15 09:14:07 51°18.78 2°40.94 19.2 0.5 70 19.3
2003-04-15 09:15:07 51°18.83 2°41.04 63.6 8.4 62 14.7
2003-04-15 09:16:07 51°18.87 2°41.31 83.6 11.2 81 18.6
2003-04-15 09:17:07 51°18.88 2°41.61 90.4 11.3 88 22
2003-04-15 09:18:07 51°18.88 2°41.91 94.7 11.1 91 24.5
2003-04-15 09:19:07 51°18.93 2°42.19 72.6 10.9 69 25.5
2003-04-15 09:20:07 51°18.98 2°42.46 77.4 10.9 73 26
2003-04-15 09:21:07 51°19.02 2°42.75 84.9 11 81 26.4
2003-04-15 09:22:07 51°19.04 2°43.04 87 11 83 26.3
2003-04-15 09:23:07 51°19.03 2°43.32 106.9 10.9 102 26.2
2003-04-15 09:24:07 51°19.01 2°43.61 105 11 100 25.1
2003-04-15 09:25:07 51°18.93 2°43.75 181.4 5 175 25.2
2003-04-15 09:26:07 51°18.89 2°43.71 233.7 2.1 228 25.3
2003-04-15 09:27:07 51°18.89 2°43.73 253.3 0.8 76 -999
2003-04-15 09:28:07 51°18.89 2°43.74 245.5 0.5 59 5.6
2003-04-15 09:29:07 51°18.9 2°43.75 243.5 0.2 328 25.3
2003-04-15 09:30:07 51°18.9 2°43.74 239.4 0.4 259 25.3
2003-04-15 09:31:07 51°18.89 2°43.73 234.6 0.6 249 25.4
2003-04-15 09:32:07 51°18.89 2°43.71 226.1 0.8 229 25.5
2003-04-15 09:33:07 51°18.88 2°43.69 215.7 0.9 210 25.5
2003-04-15 09:34:07 51°18.86 2°43.69 206.2 1.1 193 25.5
2003-04-15 09:35:07 51°18.84 2°43.68 199.1 1.2 183 25.5
2003-04-15 09:36:07 51°18.82 2°43.68 191.2 1.3 171 25.6
2003-04-15 09:37:07 51°18.8 2°43.69 184.4 1.3 160 25.5
2003-04-15 09:38:07 51°18.78 2°43.71 177.3 1.2 147 25.5
2003-04-15 09:39:07 51°18.77 2°43.73 159 1.2 125 25.5
2003-04-15 09:40:07 51°18.76 2°43.76 139.7 1.3 105 25.3
2003-04-15 09:41:07 51°18.76 2°43.8 123.2 1.3 91 25.4
2003-04-15 09:42:07 51°18.76 2°43.83 108 1.4 82 25.3
2003-04-15 09:43:07 51°18.77 2°43.87 91.7 1.4 71 25.2
2003-04-15 09:44:07 51°18.78 2°43.9 74.1 1.4 60 25.1
2003-04-15 09:45:07 51°18.79 2°43.93 51.7 1.4 46 25.2
2003-04-15 09:46:07 51°18.81 2°43.95 24.4 1.4 33 25.1
2003-04-15 09:47:07 51°18.83 2°43.97 5.4 1.3 27 25.1
2003-04-15 09:48:07 51°18.85 2°43.99 353 1.3 25 25.2
2003-04-15 09:49:07 51°18.87 2°44 343.9 1.3 20 25.1
2003-04-15 09:50:07 51°18.89 2°44.01 339.1 1.3 18 25.2
2003-04-15 09:51:07 51°18.91 2°44.02 336.7 1.3 20 25.2
2003-04-15 09:52:07 51°18.93 2°44.03 332.3 1.4 7 25.1
2003-04-15 09:53:07 51°18.95 2°44.03 307.7 1.4 351 25.3
2003-04-15 09:54:07 51°18.97 2°44.02 297.1 1.3 341 25.3
2003-04-15 09:55:07 51°19 2°44.01 321.8 1.7 356 25.4
2003-04-15 09:56:07 51°19.03 2°44.02 345.8 2 11 25.3
2003-04-15 09:57:07 51°19.06 2°44.03 6.4 2 22 25.3
2003-04-15 09:58:07 51°19.09 2°44.06 15.9 1.8 28 25.2
2003-04-15 09:59:07 51°19.11 2°44.08 20.7 1.8 31 25.3
2003-04-15 10:00:07 51°19.14 2°44.1 23.8 1.7 32 25.4
2003-04-15 10:01:07 51°19.16 2°44.13 26.5 1.7 34 25.4
2003-04-15 10:02:07 51°19.18 2°44.15 30.2 1.6 37 25.3
2003-04-15 10:03:07 51°19.2 2°44.18 34.4 1.5 38 25.5
2003-04-15 10:04:07 51°19.22 2°44.2 38.8 1.4 39 25.5
2003-04-15 10:05:07 51°19.24 2°44.23 44.2 1.4 42 25.5
2003-04-15 10:06:07 51°19.26 2°44.25 49.4 1.4 44 25.5
2003-04-15 10:07:07 51°19.28 2°44.28 68.6 1.9 52 25.5
2003-04-15 10:08:07 51°19.29 2°44.33 95.2 2 63 25.2
2003-04-15 10:09:07 51°19.3 2°44.38 125.5 1.9 78 25.3
2003-04-15 10:10:07 51°19.3 2°44.42 157.9 1.5 96 25.2
2003-04-15 10:11:07 51°19.3 2°44.45 184.6 1.2 119 25
2003-04-15 10:12:07 51°19.28 2°44.48 182.3 2.1 148 24.8
2003-04-15 10:13:07 51°19.24 2°44.51 180.9 2.9 155 24.7
2003-04-15 10:14:07 51°19.19 2°44.54 184.4 3.2 160 24.1
2003-04-15 10:15:07 51°19.14 2°44.57 182.3 3.4 158 22.4
2003-04-15 10:16:07 51°19.08 2°44.61 184.9 3.6 159 19.4
2003-04-15 10:17:07 51°19.03 2°44.64 186.7 3.6 160 17.4
2003-04-15 10:18:07 51°18.97 2°44.67 187.2 3.8 160 15.5
2003-04-15 10:19:07 51°18.91 2°44.71 186 4 158 14.5
2003-04-15 10:20:07 51°18.85 2°44.75 185 4.1 158 14.5
2003-04-15 10:21:07 51°18.79 2°44.79 185.4 4 159 16.3
2003-04-15 10:22:07 51°18.72 2°44.82 194.4 3.8 168 16.6
2003-04-15 10:23:07 51°18.66 2°44.84 190.2 3.9 164 16.9
2003-04-15 10:24:07 51°18.6 2°44.88 186.2 4 160 17.7
2003-04-15 10:25:07 51°18.54 2°44.91 186.9 4 161 19.3
2003-04-15 10:26:07 51°18.48 2°44.94 194 3.7 168 21.6
2003-04-15 10:27:07 51°18.42 2°44.94 215.5 3.1 192 21.3
2003-04-15 10:28:07 51°18.38 2°44.9 227.9 2.9 210 21.9
2003-04-15 10:29:07 51°18.34 2°44.86 228.3 2.8 212 21.9
2003-04-15 10:30:07 51°18.29 2°44.83 221 3 203 21.5
2003-04-15 10:31:07 51°18.25 2°44.8 221.7 3 201 22.1
2003-04-15 10:32:07 51°18.21 2°44.76 232.7 2.8 217 21.8
2003-04-15 10:33:07 51°18.17 2°44.71 240.4 2.7 229 20.5
2003-04-15 10:34:07 51°18.14 2°44.66 228.3 2.8 212 21.2
2003-04-15 10:35:07 51°18.09 2°44.64 217.1 3 197 21.7
2003-04-15 10:36:07 51°18.04 2°44.61 215.6 3.1 194 21.8
2003-04-15 10:37:07 51°18 2°44.6 214.6 2.7 190 20.8
2003-04-15 10:38:07 51°17.96 2°44.59 212 2.4 183 22
2003-04-15 10:39:07 51°17.92 2°44.59 210 2.2 179 21.9
2003-04-15 10:40:07 51°17.88 2°44.6 209 2.1 176 21.5
2003-04-15 10:41:07 51°17.85 2°44.6 211.6 2 178 21.6
2003-04-15 10:42:07 51°17.81 2°44.6 214.8 1.9 181 21.4
2003-04-15 10:43:07 51°17.78 2°44.59 217.8 1.8 187 21.5
2003-04-15 10:44:07 51°17.76 2°44.59 223.4 1.6 194 21.4
2003-04-15 10:45:07 51°17.73 2°44.57 228.8 1.4 203 21.3
2003-04-15 10:46:07 51°17.71 2°44.56 229.6 1.4 205 21.2
2003-04-15 10:47:07 51°17.69 2°44.54 225.5 1.5 199 20.8
2003-04-15 10:48:07 51°17.67 2°44.53 222.1 1.5 195 20.8
2003-04-15 10:49:07 51°17.64 2°44.52 218.2 1.6 191 20.7
2003-04-15 10:50:07 51°17.61 2°44.52 215.4 1.7 187 20.5
2003-04-15 10:51:07 51°17.58 2°44.51 217 1.7 189 20.7
2003-04-15 10:52:07 51°17.56 2°44.5 220.8 1.5 194 20.5
2003-04-15 10:53:07 51°17.54 2°44.49 224.9 1.4 201 20.4
2003-04-15 10:54:07 51°17.52 2°44.47 237.4 1.3 224 20.3
2003-04-15 10:55:07 51°17.5 2°44.45 237.3 1.3 225 20.6
2003-04-15 10:56:07 51°17.49 2°44.43 232.3 0.6 199 20.6
2003-04-15 10:57:07 51°17.48 2°44.43 231.4 0.5 177 20.5
2003-04-15 10:58:07 51°17.47 2°44.43 228.3 0.4 150 20.5
2003-04-15 10:59:07 51°17.47 2°44.44 224.9 0.5 132 20.6
2003-04-15 11:00:07 51°17.46 2°44.45 222.3 0.5 126 20.3
2003-04-15 11:01:07 51°17.46 2°44.46 219.2 0.5 125 20.3
2003-04-15 11:02:07 51°17.45 2°44.47 214.1 0.6 117 20.2
2003-04-15 11:03:07 51°17.45 2°44.49 208.8 0.7 116 20
2003-04-15 11:04:07 51°17.44 2°44.51 203.2 0.8 111 20
2003-04-15 11:05:07 51°17.44 2°44.53 201.7 0.8 113 20.1
2003-04-15 11:06:07 51°17.43 2°44.55 216.2 0.6 118 20
2003-04-15 11:07:07 51°17.43 2°44.56 236.7 0.3 101 19.9
2003-04-15 11:08:07 51°17.43 2°44.56 257.3 0.3 25 20.1
2003-04-15 11:09:07 51°17.44 2°44.56 279.9 1 327 19.8
2003-04-15 11:10:07 51°17.47 2°44.51 283.7 3.7 294 20.1
2003-04-15 11:11:07 51°17.49 2°44.43 283 3.1 294 20.5
2003-04-15 11:12:07 51°17.5 2°44.39 292.4 1 41 20.7
2003-04-15 11:13:07 51°17.52 2°44.41 293.2 0.9 42 20.7
2003-04-15 11:14:07 51°17.53 2°44.42 300 1 37 20.8
2003-04-15 11:15:07 51°17.54 2°44.44 306.5 1 38 20.6
2003-04-15 11:16:07 51°17.56 2°44.46 312.8 1.1 35 20.4
2003-04-15 11:17:07 51°17.57 2°44.48 317.5 1.1 39 20.5
2003-04-15 11:18:07 51°17.59 2°44.5 321.6 1.2 39 20.7
2003-04-15 11:19:07 51°17.6 2°44.52 325.2 1.3 32 20.8
2003-04-15 11:20:07 51°17.62 2°44.53 328.1 1.3 26 20.7
2003-04-15 11:21:07 51°17.65 2°44.55 336 1.9 15 20.8
2003-04-15 11:22:07 51°17.68 2°44.56 345.9 2.1 21 21
2003-04-15 11:23:07 51°17.71 2°44.59 353.4 2.2 26 21.4
2003-04-15 11:24:07 51°17.75 2°44.61 358.4 2.2 27 21.5
2003-04-15 11:25:07 51°17.78 2°44.64 1.9 2.3 29 21.5
2003-04-15 11:26:07 51°17.81 2°44.67 6 2.3 32 21.7
2003-04-15 11:27:07 51°17.84 2°44.71 10.7 2.3 35 21.7
2003-04-15 11:28:07 51°17.88 2°44.74 15.9 3.4 30 22
2003-04-15 11:29:07 51°18 2°44.86 33.6 12.5 33 22.5
2003-04-15 11:30:07 51°18.19 2°45.09 45.2 15.1 43 23.1
2003-04-15 11:31:07 51°18.37 2°45.38 49.2 15.2 46 23.7
2003-04-15 11:32:07 51°18.56 2°45.66 44.5 15.2 42 24.3
2003-04-15 11:33:07 51°18.75 2°45.93 44.6 15.3 42 24
2003-04-15 11:34:07 51°18.94 2°46.19 44.2 15.2 41 24.3
2003-04-15 11:35:07 51°19.12 2°46.47 47.5 15.3 44 24.6
2003-04-15 11:36:07 51°19.3 2°46.76 47.5 15.3 44 24.6
2003-04-15 11:37:07 51°19.45 2°46.92 24.5 7.9 28 24.7
2003-04-15 11:38:07 51°19.52 2°47.05 74.4 5.6 66 25.1
2003-04-15 11:39:07 51°19.52 2°47.18 121 4.3 98 25.2
2003-04-15 11:40:07 51°19.5 2°47.26 169.3 2.9 132 25.2
2003-04-15 11:41:07 51°19.46 2°47.28 210.3 2.3 183 25
2003-04-15 11:42:07 51°19.42 2°47.23 231.8 3.5 223 25
2003-04-15 11:43:07 51°19.39 2°47.16 242.1 3.4 237 25
2003-04-15 11:44:07 51°19.36 2°47.08 242.2 3.4 239 25
2003-04-15 11:45:07 51°19.34 2°47 246 3.4 244 25.1
2003-04-15 11:46:07 51°19.31 2°46.93 242.1 3.1 239 24.9
2003-04-15 11:47:07 51°19.28 2°46.86 242.5 2.7 240 24.9
2003-04-15 11:48:07 51°19.27 2°46.81 247.4 2.4 247 24.9
2003-04-15 11:49:07 51°19.25 2°46.75 242.5 2.3 240 24.9
2003-04-15 11:50:07 51°19.23 2°46.7 235.1 2.2 227 24.5
2003-04-15 11:51:07 51°19.2 2°46.66 237.1 2.2 229 24.9
2003-04-15 11:52:07 51°19.18 2°46.61 248.4 2.2 247 24.8
2003-04-15 11:53:07 51°19.17 2°46.56 246.2 2.2 245 25
2003-04-15 11:54:07 51°19.14 2°46.51 231.2 2.2 222 24.6
2003-04-15 11:55:07 51°19.11 2°46.47 235.5 2.3 226 24.7
2003-04-15 11:56:07 51°19.09 2°46.43 243.6 2.2 238 25
2003-04-15 11:57:07 51°19.07 2°46.38 234.2 2.2 227 25
2003-04-15 11:58:07 51°19.05 2°46.34 236.3 2.3 228 24.5
2003-04-15 11:59:07 51°19.03 2°46.29 245.4 2.2 243 25
2003-04-15 12:00:07 51°19.01 2°46.24 239.7 2.3 235 25
2003-04-15 12:01:07 51°18.99 2°46.19 246.6 2.2 244 24.4
2003-04-15 12:02:07 51°18.97 2°46.13 249.5 2.2 250 23.9
2003-04-15 12:03:07 51°18.96 2°46.08 237.8 2.1 231 24.5
2003-04-15 12:04:07 51°18.93 2°46.04 238 2.1 229 24.6
2003-04-15 12:05:07 51°18.91 2°46 236.6 2.2 229 24.5
2003-04-15 12:06:07 51°18.88 2°45.96 231.6 2.2 221 24.3
2003-04-15 12:07:07 51°18.85 2°45.92 233.9 2.2 223 24.1
2003-04-15 12:08:07 51°18.83 2°45.87 241 2.2 234 24
2003-04-15 12:09:07 51°18.8 2°45.83 229.6 2.2 219 23.9
2003-04-15 12:10:07 51°18.77 2°45.8 228.4 2.3 216 23.7
2003-04-15 12:11:07 51°18.75 2°45.75 240.3 2.2 234 24
2003-04-15 12:12:07 51°18.73 2°45.71 231.6 2.2 223 23.7
2003-04-15 12:13:07 51°18.69 2°45.68 221.2 2.3 206 23.7
2003-04-15 12:14:07 51°18.66 2°45.65 226.8 2.3 214 23.5
2003-04-15 12:15:07 51°18.63 2°45.61 235.6 2.2 228 24.1
2003-04-15 12:16:07 51°18.61 2°45.56 241.4 2.1 240 24.1
2003-04-15 12:17:07 51°18.6 2°45.51 251.2 1.7 258 23.8
2003-04-15 12:18:07 51°18.6 2°45.47 262.8 1.6 282 23.8
2003-04-15 12:19:07 51°18.61 2°45.43 276.2 1.8 303 23.6
2003-04-15 12:20:07 51°18.63 2°45.39 288.4 2 313 22.9
2003-04-15 12:21:07 51°18.66 2°45.35 298.4 2.3 326 22.4
2003-04-15 12:22:07 51°18.69 2°45.33 305.6 2 342 22.2
2003-04-15 12:23:07 51°18.72 2°45.32 313.5 1.9 356 21.2
2003-04-15 12:24:07 51°18.75 2°45.32 317.9 1.7 4 21.8
2003-04-15 12:25:07 51°18.78 2°45.33 321.9 1.6 11 21.1
2003-04-15 12:26:07 51°18.8 2°45.34 327.1 1.6 18 21.1
2003-04-15 12:27:07 51°18.83 2°45.35 340.9 2.2 12 20.6
2003-04-15 12:28:07 51°18.89 2°45.41 50 5.3 47 20.9
2003-04-15 12:29:07 51°18.88 2°45.61 134.6 11.1 124 20.9
2003-04-15 12:30:07 51°18.74 2°45.89 138.1 13.9 129 23.8
2003-04-15 12:31:07 51°18.57 2°46.15 145.7 14.1 137 23.4
2003-04-15 12:32:07 51°18.4 2°46.4 145.3 14.1 137 21.7
2003-04-15 12:33:07 51°18.23 2°46.65 145.1 13.7 137 21
2003-04-15 12:34:07 51°18.07 2°46.91 142.2 13.9 134 19.5
2003-04-15 12:35:07 51°17.91 2°47.18 141.9 13.7 133 14.1
2003-04-15 12:36:07 51°17.75 2°47.45 140.5 13.9 133 13.5
2003-04-15 12:37:07 51°17.59 2°47.71 141.7 13.8 134 13.8
2003-04-15 12:38:07 51°17.45 2°47.99 137.7 13.9 129 12.3
2003-04-15 12:39:07 51°17.3 2°48.28 136.9 13.9 129 12.4
2003-04-15 12:40:07 51°17.15 2°48.56 136.9 14 129 13
2003-04-15 12:41:07 51°17.01 2°48.86 136.6 14 128 14.1
2003-04-15 12:42:07 51°16.87 2°49.15 137.1 13.9 128 12.6
2003-04-15 12:43:07 51°16.72 2°49.44 136.6 14 127 13.2
2003-04-15 12:44:07 51°16.58 2°49.74 137 14.3 128 16.6
2003-04-15 12:45:07 51°16.43 2°50.04 136.4 14.2 129 13.9
2003-04-15 12:46:07 51°16.29 2°50.33 135.1 14.2 128 12.8
2003-04-15 12:47:07 51°16.14 2°50.63 136.6 14.3 129 13
2003-04-15 12:48:07 51°15.99 2°50.92 137.4 14.2 129 15.6
2003-04-15 12:49:07 51°15.85 2°51.22 137.9 14.2 129 15.6
2003-04-15 12:50:07 51°15.7 2°51.51 137.3 14.2 128 15.4
2003-04-15 12:51:07 51°15.55 2°51.81 137.2 14.3 129 15.3
2003-04-15 12:52:07 51°15.4 2°52.11 136.5 14.3 128 14.7
2003-04-15 12:53:07 51°15.26 2°52.41 132.8 14.4 125 14.2
2003-04-15 12:54:07 51°15.14 2°52.73 127 14.3 119 13.4
2003-04-15 12:55:07 51°15.02 2°53.06 127.3 14.3 120 12.8
2003-04-15 12:56:07 51°14.9 2°53.38 128.2 14.2 122 12.4
2003-04-15 12:57:07 51°14.78 2°53.69 128.4 13.1 121 12.4
2003-04-15 12:58:07 51°14.68 2°53.99 128.8 12.9 120 12.7
2003-04-15 12:59:07 51°14.57 2°54.29 125.7 13 117 12.8